createdAt,value
2017-04-30T00:00:26.788Z,5.60
2017-04-30T00:02:55.775Z,5.60
2017-04-30T00:05:24.994Z,5.60
2017-04-30T00:07:53.870Z,5.60
2017-04-30T00:10:22.737Z,5.50
2017-04-30T00:12:52.374Z,5.50
2017-04-30T00:15:21.253Z,5.60
2017-04-30T00:17:50.484Z,5.60
2017-04-30T00:20:19.359Z,5.60
2017-04-30T00:22:48.234Z,5.60
2017-04-30T00:25:17.393Z,5.60
2017-04-30T00:27:46.269Z,5.60
2017-04-30T00:30:15.143Z,5.40
2017-04-30T00:32:44.060Z,5.40
2017-04-30T00:35:13.024Z,5.40
2017-04-30T00:37:41.894Z,5.40
2017-04-30T00:40:10.802Z,5.50
2017-04-30T00:42:39.681Z,5.40
2017-04-30T00:45:08.556Z,5.20
2017-04-30T00:47:37.677Z,5.20
2017-04-30T00:50:06.553Z,5.30
2017-04-30T00:52:35.428Z,5.30
2017-04-30T00:55:04.544Z,5.40
2017-04-30T00:57:33.425Z,5.30
2017-04-30T01:00:02.296Z,5.20
2017-04-30T01:02:31.523Z,5.20
2017-04-30T01:05:00.408Z,5.20
2017-04-30T01:07:29.287Z,5.20
2017-04-30T01:09:58.290Z,5.20
2017-04-30T01:12:27.171Z,5.20
2017-04-30T01:14:56.046Z,5.10
2017-04-30T01:17:25.689Z,5.00
2017-04-30T01:19:54.574Z,4.90
2017-04-30T01:22:23.493Z,5.00
2017-04-30T01:24:52.361Z,5.00
2017-04-30T01:27:21.229Z,5.00
2017-04-30T01:29:50.142Z,5.10
2017-04-30T01:32:19.016Z,4.90
2017-04-30T01:34:47.906Z,4.90
2017-04-30T01:37:16.825Z,4.90
2017-04-30T01:39:45.705Z,4.90
2017-04-30T01:42:14.580Z,4.90
2017-04-30T01:44:43.753Z,4.90
2017-04-30T01:47:13.369Z,4.80
2017-04-30T01:49:42.246Z,4.70
2017-04-30T01:52:11.917Z,4.70
2017-04-30T01:54:40.794Z,4.80
2017-04-30T01:57:09.671Z,4.80
2017-04-30T01:59:38.581Z,4.80
2017-04-30T02:02:07.474Z,4.80
2017-04-30T02:04:36.365Z,4.70
2017-04-30T02:07:05.267Z,4.70
2017-04-30T02:09:34.140Z,4.60
2017-04-30T02:12:03.008Z,4.60
2017-04-30T02:14:31.927Z,4.60
2017-04-30T02:17:00.801Z,4.60
2017-04-30T02:19:29.677Z,4.60
2017-04-30T02:21:59.090Z,4.60
2017-04-30T02:24:27.964Z,4.40
2017-04-30T02:26:56.839Z,4.50
2017-04-30T02:29:26.490Z,4.50
2017-04-30T02:31:55.358Z,4.60
2017-04-30T02:34:24.235Z,4.60
2017-04-30T02:36:53.878Z,4.60
2017-04-30T02:39:22.755Z,4.50
2017-04-30T02:41:51.685Z,4.40
2017-04-30T02:44:20.557Z,4.30
2017-04-30T02:46:49.433Z,4.40
2017-04-30T02:49:18.350Z,4.40
2017-04-30T02:51:47.226Z,4.30
2017-04-30T02:54:16.106Z,4.20
2017-04-30T02:56:45.068Z,4.30
2017-04-30T02:59:14.689Z,4.30
2017-04-30T03:01:43.556Z,4.30
2017-04-30T03:04:13.209Z,4.20
2017-04-30T03:06:42.077Z,4.20
2017-04-30T03:09:10.958Z,4.20
2017-04-30T03:11:40.608Z,4.20
2017-04-30T03:14:09.484Z,4.10
2017-04-30T03:16:38.358Z,4.00
2017-04-30T03:19:07.268Z,4.00
2017-04-30T03:21:36.146Z,4.00
2017-04-30T03:24:05.025Z,4.00
2017-04-30T03:26:34.029Z,4.00
2017-04-30T03:29:02.907Z,3.90
2017-04-30T03:31:31.794Z,3.90
2017-04-30T03:34:00.704Z,3.90
2017-04-30T03:36:29.577Z,3.90
2017-04-30T03:39:10.440Z,4.00
2017-04-30T03:41:51.813Z,4.00
2017-04-30T03:44:33.220Z,4.00
2017-04-30T03:47:13.873Z,3.90
2017-04-30T03:49:55.358Z,4.00
2017-04-30T03:52:36.862Z,4.00
2017-04-30T03:55:17.794Z,4.00
2017-04-30T03:57:58.394Z,4.00
2017-04-30T04:00:39.048Z,4.00
2017-04-30T04:03:20.882Z,4.00
2017-04-30T04:06:01.405Z,4.00
2017-04-30T04:08:43.134Z,4.00
2017-04-30T04:11:23.690Z,4.00
2017-04-30T04:14:04.605Z,4.00
2017-04-30T04:16:45.345Z,4.00
2017-04-30T04:19:26.165Z,4.00
2017-04-30T04:22:07.556Z,4.00
2017-04-30T04:24:49.126Z,4.10
2017-04-30T04:27:29.918Z,4.20
2017-04-30T04:30:11.412Z,4.30
2017-04-30T04:32:52.023Z,4.30
2017-04-30T04:35:32.917Z,4.30
2017-04-30T04:38:13.681Z,4.40
2017-04-30T04:40:54.529Z,4.50
2017-04-30T04:43:35.362Z,4.60
2017-04-30T04:46:16.247Z,4.60
2017-04-30T04:48:57.073Z,4.70
2017-04-30T04:51:38.217Z,4.70
2017-04-30T04:54:19.012Z,4.90
2017-04-30T04:56:59.642Z,4.90
2017-04-30T04:59:40.344Z,5.00
2017-04-30T05:02:21.066Z,5.00
2017-04-30T05:05:01.744Z,5.10
2017-04-30T05:07:42.667Z,5.20
2017-04-30T05:10:24.125Z,5.30
2017-04-30T05:13:04.982Z,5.50
2017-04-30T05:15:45.814Z,5.60
2017-04-30T05:18:27.115Z,5.60
2017-04-30T05:21:07.745Z,5.60
2017-04-30T05:23:49.354Z,5.60
2017-04-30T05:26:30.194Z,5.70
2017-04-30T05:29:11.078Z,5.80
2017-04-30T05:31:52.536Z,5.80
2017-04-30T05:34:33.222Z,6.00
2017-04-30T05:37:13.850Z,6.00
2017-04-30T05:39:54.725Z,6.10
2017-04-30T05:42:35.382Z,6.20
2017-04-30T05:45:16.089Z,6.40
2017-04-30T05:47:56.812Z,6.40
2017-04-30T05:50:37.807Z,6.40
2017-04-30T05:53:18.577Z,6.60
2017-04-30T05:55:59.446Z,6.70
2017-04-30T05:58:40.191Z,6.80
2017-04-30T06:01:21.376Z,6.90
2017-04-30T06:04:02.068Z,6.90
2017-04-30T06:06:43.231Z,6.90
2017-04-30T06:09:24.056Z,6.90
2017-04-30T06:12:05.581Z,7.10
2017-04-30T06:14:46.357Z,7.40
2017-04-30T06:17:26.930Z,7.30
2017-04-30T06:20:07.905Z,7.40
2017-04-30T06:22:48.864Z,7.50
2017-04-30T06:25:29.751Z,7.50
2017-04-30T06:28:10.572Z,7.50
2017-04-30T06:30:52.168Z,7.60
2017-04-30T06:33:32.912Z,7.70
2017-04-30T06:36:14.632Z,7.90
2017-04-30T06:38:55.465Z,7.90
2017-04-30T06:41:36.328Z,8.00
2017-04-30T06:44:16.970Z,8.20
2017-04-30T06:46:57.557Z,8.20
2017-04-30T06:49:38.332Z,8.30
2017-04-30T06:52:18.982Z,8.40
2017-04-30T06:54:59.810Z,8.40
2017-04-30T06:57:40.392Z,8.50
2017-04-30T07:00:21.119Z,8.60
2017-04-30T07:03:02.708Z,8.60
2017-04-30T07:05:44.577Z,8.70
2017-04-30T07:08:25.089Z,8.70
2017-04-30T07:11:05.721Z,8.80
2017-04-30T07:13:47.202Z,8.90
2017-04-30T07:16:27.877Z,9.00
2017-04-30T07:19:09.310Z,9.00
2017-04-30T07:21:50.157Z,9.10
2017-04-30T07:24:30.899Z,9.10
2017-04-30T07:27:11.798Z,9.20
2017-04-30T07:29:52.605Z,9.30
2017-04-30T07:32:33.324Z,9.30
2017-04-30T07:35:14.857Z,9.30
2017-04-30T07:37:55.581Z,9.40
2017-04-30T07:40:36.952Z,9.50
2017-04-30T07:43:05.862Z,9.70
2017-04-30T07:45:34.745Z,9.80
2017-04-30T07:48:03.657Z,9.80
2017-04-30T07:50:32.558Z,9.90
2017-04-30T07:53:01.438Z,9.90
2017-04-30T07:55:30.465Z,10.10
2017-04-30T07:57:59.349Z,10.20
2017-04-30T08:00:28.245Z,10.20
2017-04-30T08:02:57.269Z,10.30
2017-04-30T08:05:26.906Z,10.40
2017-04-30T08:07:55.801Z,10.40
2017-04-30T08:10:24.819Z,10.50
2017-04-30T08:12:53.696Z,10.50
2017-04-30T08:15:22.586Z,10.70
2017-04-30T08:17:51.512Z,10.80
2017-04-30T08:20:20.389Z,11.00
2017-04-30T08:22:49.325Z,11.10
2017-04-30T08:25:18.289Z,11.10
2017-04-30T08:27:47.176Z,11.10
2017-04-30T08:30:16.098Z,11.10
2017-04-30T08:32:45.729Z,11.10
2017-04-30T08:35:14.608Z,11.20
2017-04-30T08:37:44.369Z,11.40
2017-04-30T08:40:13.989Z,11.50
2017-04-30T08:42:42.874Z,11.60
2017-04-30T08:45:12.062Z,11.70
2017-04-30T08:47:40.942Z,11.80
2017-04-30T08:50:09.849Z,11.80
2017-04-30T08:52:39.033Z,11.80
2017-04-30T08:55:07.914Z,11.90
2017-04-30T08:57:36.797Z,11.90
2017-04-30T09:00:05.712Z,12.10
2017-04-30T09:02:34.594Z,12.20
2017-04-30T09:05:03.473Z,12.20
2017-04-30T09:07:32.394Z,12.10
2017-04-30T09:10:01.277Z,12.20
2017-04-30T09:12:30.164Z,12.40
2017-04-30T09:14:59.072Z,12.60
2017-04-30T09:17:27.964Z,12.70
2017-04-30T09:19:56.841Z,12.80
2017-04-30T09:22:26.027Z,13.00
2017-04-30T09:24:54.905Z,13.10
2017-04-30T09:27:23.785Z,13.10
2017-04-30T09:29:52.697Z,13.00
2017-04-30T09:32:21.578Z,13.00
2017-04-30T09:34:50.465Z,13.10
2017-04-30T09:37:19.401Z,13.30
2017-04-30T09:39:48.281Z,13.50
2017-04-30T09:42:17.164Z,13.40
2017-04-30T09:44:46.094Z,13.50
2017-04-30T09:47:15.717Z,13.60
2017-04-30T09:49:45.336Z,13.70
2017-04-30T09:52:14.552Z,13.80
2017-04-30T09:54:43.432Z,13.90
2017-04-30T09:57:12.314Z,14.10
2017-04-30T09:59:41.529Z,14.20
2017-04-30T10:02:10.436Z,14.00
2017-04-30T10:04:39.310Z,14.10
2017-04-30T10:07:08.225Z,14.20
2017-04-30T10:09:37.100Z,14.40
2017-04-30T10:12:05.979Z,14.70
2017-04-30T10:14:35.022Z,14.90
2017-04-30T10:17:03.913Z,15.20
2017-04-30T10:19:32.794Z,15.30
2017-04-30T10:22:01.706Z,15.50
2017-04-30T10:24:31.323Z,15.60
2017-04-30T10:27:00.935Z,15.50
2017-04-30T10:29:30.602Z,15.60
2017-04-30T10:31:59.473Z,15.50
2017-04-30T10:34:29.090Z,15.30
2017-04-30T10:36:58.012Z,15.40
2017-04-30T10:39:26.895Z,15.20
2017-04-30T10:41:55.765Z,15.40
2017-04-30T10:44:24.676Z,15.80
2017-04-30T10:46:53.554Z,16.00
2017-04-30T10:49:22.425Z,16.10
2017-04-30T10:51:51.340Z,16.10
2017-04-30T10:54:20.208Z,16.00
2017-04-30T10:56:49.081Z,15.80
2017-04-30T10:59:17.996Z,15.90
2017-04-30T11:01:46.870Z,16.40
2017-04-30T11:04:15.743Z,16.60
2017-04-30T11:06:44.743Z,16.70
2017-04-30T11:09:13.616Z,16.80
2017-04-30T11:11:43.238Z,16.90
2017-04-30T11:14:12.548Z,16.70
2017-04-30T11:16:42.158Z,16.70
2017-04-30T11:19:11.029Z,16.60
2017-04-30T11:21:40.029Z,16.90
2017-04-30T11:24:08.902Z,16.90
2017-04-30T11:26:38.515Z,16.70
2017-04-30T11:29:07.637Z,17.00
2017-04-30T11:31:36.508Z,17.70
2017-04-30T11:34:05.381Z,17.90
2017-04-30T11:36:35.333Z,17.90
2017-04-30T11:39:04.206Z,17.10
2017-04-30T11:41:33.087Z,17.00
2017-04-30T11:44:03.028Z,16.90
2017-04-30T11:46:31.906Z,16.90
2017-04-30T11:49:00.784Z,17.10
2017-04-30T11:51:30.014Z,17.70
2017-04-30T11:53:58.890Z,18.40
2017-04-30T11:56:27.761Z,18.80
2017-04-30T11:58:57.709Z,19.20
2017-04-30T12:01:26.582Z,19.20
2017-04-30T12:03:55.466Z,19.60
2017-04-30T12:06:24.373Z,19.60
2017-04-30T12:08:53.245Z,18.90
2017-04-30T12:11:22.117Z,18.30
2017-04-30T12:13:51.756Z,18.20
2017-04-30T12:16:21.068Z,18.00
2017-04-30T12:18:49.945Z,17.70
2017-04-30T12:21:18.829Z,17.60
2017-04-30T12:23:47.738Z,17.10
2017-04-30T12:26:16.610Z,17.70
2017-04-30T12:28:45.489Z,20.90
2017-04-30T12:31:14.713Z,23.20
2017-04-30T12:33:43.591Z,26.30
2017-04-30T12:36:12.466Z,28.00
2017-04-30T12:38:42.211Z,27.80
2017-04-30T12:41:11.084Z,26.10
2017-04-30T12:43:39.953Z,23.90
2017-04-30T12:46:09.705Z,22.50
2017-04-30T12:48:38.586Z,21.90
2017-04-30T12:51:07.456Z,20.80
2017-04-30T12:53:36.370Z,20.10
2017-04-30T12:56:05.237Z,19.70
2017-04-30T12:58:34.120Z,19.50
2017-04-30T13:01:03.978Z,19.60
2017-04-30T13:03:32.856Z,18.80
2017-04-30T13:06:01.734Z,18.50
2017-04-30T13:08:30.640Z,17.90
2017-04-30T13:10:59.530Z,17.70
2017-04-30T13:13:28.394Z,17.90
2017-04-30T13:15:57.308Z,17.90
2017-04-30T13:18:26.183Z,17.90
2017-04-30T13:20:55.061Z,17.90
2017-04-30T13:23:24.714Z,18.00
2017-04-30T13:25:53.589Z,18.40
2017-04-30T13:28:22.466Z,18.00
2017-04-30T13:30:51.370Z,18.50
2017-04-30T13:33:20.244Z,19.50
2017-04-30T13:35:49.349Z,21.40
2017-04-30T13:38:18.225Z,22.60
2017-04-30T13:40:47.098Z,25.80
2017-04-30T13:43:16.846Z,28.50
2017-04-30T13:45:45.721Z,28.00
2017-04-30T13:48:14.594Z,30.20
2017-04-30T13:50:44.538Z,32.20
2017-04-30T13:53:13.424Z,30.90
2017-04-30T13:55:42.306Z,30.90
2017-04-30T13:58:11.209Z,31.10
2017-04-30T14:00:40.085Z,31.60
2017-04-30T14:03:08.971Z,32.60
2017-04-30T14:05:38.193Z,31.50
2017-04-30T14:08:07.064Z,30.40
2017-04-30T14:10:35.945Z,29.60
2017-04-30T14:13:05.595Z,31.20
2017-04-30T14:15:34.474Z,31.00
2017-04-30T14:18:03.348Z,29.90
2017-04-30T14:20:32.261Z,28.80
2017-04-30T14:23:01.132Z,28.80
2017-04-30T14:25:30.013Z,29.50
2017-04-30T14:27:59.230Z,29.60
2017-04-30T14:30:28.108Z,28.20
2017-04-30T14:32:56.986Z,28.80
2017-04-30T14:35:26.642Z,30.40
2017-04-30T14:37:55.518Z,32.00
2017-04-30T14:40:24.399Z,30.80
2017-04-30T14:42:53.325Z,30.30
2017-04-30T14:45:22.283Z,29.90
2017-04-30T14:47:51.151Z,31.10
2017-04-30T14:50:20.802Z,31.20
2017-04-30T14:52:49.676Z,29.00
2017-04-30T14:55:18.561Z,26.60
2017-04-30T14:57:47.473Z,24.90
2017-04-30T15:00:16.346Z,24.20
2017-04-30T15:02:45.242Z,23.20
2017-04-30T15:05:14.438Z,22.10
2017-04-30T15:07:43.310Z,20.80
2017-04-30T15:10:12.185Z,20.40
2017-04-30T15:12:41.105Z,20.60
2017-04-30T15:15:09.978Z,20.80
2017-04-30T15:17:38.852Z,20.60
2017-04-30T15:20:08.822Z,19.90
2017-04-30T15:22:37.667Z,19.80
2017-04-30T15:25:05.776Z,19.80
2017-04-30T15:27:34.903Z,18.90
2017-04-30T15:30:03.779Z,18.60
2017-04-30T15:32:32.651Z,18.50
2017-04-30T15:35:01.559Z,18.40
2017-04-30T15:37:30.436Z,18.50
2017-04-30T15:39:59.310Z,17.90
2017-04-30T15:42:28.221Z,17.70
2017-04-30T15:44:57.107Z,17.30
2017-04-30T15:47:25.979Z,17.30
2017-04-30T15:49:54.875Z,17.40
2017-04-30T15:52:23.747Z,17.40
2017-04-30T15:54:52.623Z,17.40
2017-04-30T15:57:22.282Z,17.10
2017-04-30T15:59:51.151Z,17.10
2017-04-30T16:02:20.020Z,17.10
2017-04-30T16:04:48.941Z,17.10
2017-04-30T16:07:17.823Z,16.90
2017-04-30T16:09:46.685Z,16.80
2017-04-30T16:12:16.630Z,16.70
2017-04-30T16:14:45.513Z,16.70
2017-04-30T16:17:14.388Z,16.70
2017-04-30T16:19:43.284Z,16.50
2017-04-30T16:22:12.157Z,16.50
2017-04-30T16:24:41.900Z,16.40
2017-04-30T16:27:10.772Z,16.50
2017-04-30T16:29:39.644Z,16.60
2017-04-30T16:32:09.292Z,16.50
2017-04-30T16:34:38.173Z,16.50
2017-04-30T16:37:07.048Z,16.60
2017-04-30T16:39:36.190Z,16.70
2017-04-30T16:42:05.058Z,16.50
2017-04-30T16:44:33.930Z,16.50
2017-04-30T16:47:02.821Z,16.50
2017-04-30T16:49:31.697Z,16.10
2017-04-30T16:52:01.644Z,16.10
2017-04-30T16:54:30.536Z,16.10
2017-04-30T16:56:59.410Z,15.90
2017-04-30T16:59:28.321Z,15.80
2017-04-30T17:01:57.197Z,15.50
2017-04-30T17:04:26.078Z,15.30
2017-04-30T17:06:55.196Z,15.30
2017-04-30T17:09:24.069Z,15.30
2017-04-30T17:11:52.944Z,15.10
2017-04-30T17:14:22.888Z,15.00
2017-04-30T17:16:51.757Z,15.10
2017-04-30T17:19:20.630Z,15.10
2017-04-30T17:21:50.285Z,15.10
2017-04-30T17:24:19.170Z,15.10
2017-04-30T17:26:48.044Z,14.90
2017-04-30T17:29:17.051Z,14.70
2017-04-30T17:31:45.925Z,14.50
2017-04-30T17:34:14.805Z,14.30
2017-04-30T17:36:44.752Z,14.10
2017-04-30T17:39:13.629Z,14.00
2017-04-30T17:41:42.504Z,13.90
2017-04-30T17:44:11.569Z,13.80
2017-04-30T17:46:40.449Z,13.80
2017-04-30T17:49:09.330Z,13.70
2017-04-30T17:51:38.245Z,13.60
2017-04-30T17:54:07.130Z,13.60
2017-04-30T17:56:36.005Z,13.50
2017-04-30T17:59:04.904Z,13.50
2017-04-30T18:01:33.804Z,13.30
2017-04-30T18:04:03.059Z,13.20
2017-04-30T18:06:31.943Z,13.00
2017-04-30T18:09:00.812Z,12.90
2017-04-30T18:11:29.729Z,12.80
2017-04-30T18:13:58.608Z,12.60
2017-04-30T18:16:27.492Z,12.50
2017-04-30T18:18:56.653Z,12.40
2017-04-30T18:21:25.530Z,12.30
2017-04-30T18:23:54.418Z,12.20
2017-04-30T18:26:23.345Z,12.10
2017-04-30T18:28:52.978Z,12.00
2017-04-30T18:31:21.856Z,12.00
2017-04-30T18:33:50.791Z,11.90
2017-04-30T18:36:19.674Z,11.90
2017-04-30T18:38:48.551Z,11.80
2017-04-30T18:41:17.502Z,11.70
2017-04-30T18:43:47.135Z,11.60
2017-04-30T18:46:16.017Z,11.60
2017-04-30T18:48:44.945Z,11.40
2017-04-30T18:51:13.833Z,11.30
2017-04-30T18:53:42.722Z,11.30
2017-04-30T18:56:11.825Z,11.20
2017-04-30T18:58:40.717Z,11.10
2017-04-30T19:01:09.610Z,11.00
2017-04-30T19:03:38.928Z,11.00
2017-04-30T19:06:07.814Z,10.90
2017-04-30T19:08:36.682Z,10.90
2017-04-30T19:11:05.597Z,10.80
2017-04-30T19:13:34.481Z,10.80
2017-04-30T19:16:03.363Z,10.70
2017-04-30T19:18:32.302Z,10.60
2017-04-30T19:21:01.933Z,10.50
2017-04-30T19:23:30.831Z,10.40
2017-04-30T19:25:59.840Z,10.40
2017-04-30T19:28:28.730Z,10.30
2017-04-30T19:30:57.617Z,10.30
2017-04-30T19:33:26.817Z,10.20
2017-04-30T19:35:55.716Z,10.20
2017-04-30T19:38:24.609Z,10.20
2017-04-30T19:40:53.544Z,10.20
2017-04-30T19:43:22.502Z,10.30
2017-04-30T19:45:51.401Z,10.30
2017-04-30T19:48:20.361Z,10.40
2017-04-30T19:50:49.269Z,10.40
2017-04-30T19:53:18.171Z,10.40
2017-04-30T19:55:47.092Z,10.50
2017-04-30T19:58:16.717Z,10.60
2017-04-30T20:00:45.604Z,10.70
2017-04-30T20:03:14.537Z,10.70
2017-04-30T20:05:43.421Z,10.80
2017-04-30T20:08:12.309Z,10.80
2017-04-30T20:10:41.232Z,10.80
2017-04-30T20:13:10.122Z,10.90
2017-04-30T20:15:39.008Z,10.90
2017-04-30T20:18:08.022Z,10.90
2017-04-30T20:20:37.648Z,10.90
2017-04-30T20:23:06.547Z,11.00
2017-04-30T20:25:35.472Z,10.90
2017-04-30T20:28:04.373Z,10.90
2017-04-30T20:30:33.259Z,10.90
2017-04-30T20:33:02.279Z,11.00
2017-04-30T20:35:31.165Z,11.00
2017-04-30T20:38:00.048Z,11.10
2017-04-30T20:40:28.979Z,11.10
2017-04-30T20:42:57.868Z,11.20
2017-04-30T20:45:27.500Z,11.10
2017-04-30T20:47:56.810Z,11.10
2017-04-30T20:50:25.694Z,11.10
2017-04-30T20:52:54.586Z,11.10
2017-04-30T20:55:23.780Z,11.10
2017-04-30T20:57:52.676Z,11.10
2017-04-30T21:00:21.591Z,11.10
2017-04-30T21:02:50.503Z,11.10
2017-04-30T21:05:19.388Z,11.10
2017-04-30T21:07:48.314Z,11.10
2017-04-30T21:10:17.192Z,11.10
2017-04-30T21:12:46.818Z,11.10
2017-04-30T21:15:15.736Z,11.10
2017-04-30T21:17:44.649Z,11.10
2017-04-30T21:20:13.532Z,11.10
2017-04-30T21:22:42.449Z,11.20
2017-04-30T21:25:11.331Z,11.20
2017-04-30T21:27:40.215Z,11.10
2017-04-30T21:30:09.137Z,11.10
2017-04-30T21:32:38.043Z,11.20
2017-04-30T21:35:06.925Z,11.30
2017-04-30T21:37:35.850Z,11.20
2017-04-30T21:40:04.734Z,11.20
2017-04-30T21:42:33.612Z,11.20
2017-04-30T21:45:02.625Z,11.10
2017-04-30T21:47:31.513Z,11.20
2017-04-30T21:50:00.393Z,11.20
2017-04-30T21:52:29.433Z,11.30
2017-04-30T21:54:58.314Z,11.20
2017-04-30T21:57:27.198Z,11.20
2017-04-30T21:59:56.121Z,11.10
2017-04-30T22:02:25.752Z,10.90
2017-04-30T22:04:54.640Z,11.10
2017-04-30T22:07:23.650Z,11.00
2017-04-30T22:09:52.533Z,11.10
2017-04-30T22:12:21.421Z,11.10
2017-04-30T22:14:50.341Z,11.10
2017-04-30T22:17:19.230Z,11.10
2017-04-30T22:19:48.118Z,11.20
2017-04-30T22:22:17.034Z,11.10
2017-04-30T22:24:45.917Z,11.10
2017-04-30T22:27:14.843Z,11.10
2017-04-30T22:29:44.472Z,11.10
2017-04-30T22:32:13.369Z,11.10
2017-04-30T22:34:42.281Z,11.00
2017-04-30T22:37:11.170Z,11.10
2017-04-30T22:39:40.056Z,11.10
2017-04-30T22:42:09.070Z,11.10
2017-04-30T22:44:37.960Z,11.10
2017-04-30T22:47:06.845Z,11.00
2017-04-30T22:49:35.765Z,11.10
2017-04-30T22:52:04.662Z,11.10
2017-04-30T22:54:34.290Z,11.10
2017-04-30T22:57:03.210Z,11.20
2017-04-30T22:59:32.098Z,11.20
2017-04-30T23:02:00.977Z,11.10
2017-04-30T23:04:29.900Z,11.00
2017-04-30T23:06:58.786Z,11.00
2017-04-30T23:09:27.686Z,11.00
2017-04-30T23:11:56.598Z,11.10
2017-04-30T23:14:25.490Z,11.20
2017-04-30T23:16:54.439Z,11.10
2017-04-30T23:19:23.353Z,11.10
2017-04-30T23:21:52.237Z,11.10
2017-04-30T23:24:21.129Z,11.10
2017-04-30T23:26:50.148Z,11.00
2017-04-30T23:29:19.024Z,11.00
2017-04-30T23:31:47.905Z,10.90
2017-04-30T23:34:16.821Z,10.90
2017-04-30T23:36:45.973Z,10.80
2017-04-30T23:39:14.862Z,10.80
2017-04-30T23:41:43.741Z,10.80
2017-04-30T23:44:12.756Z,10.90
2017-04-30T23:46:41.637Z,10.90
2017-04-30T23:49:10.522Z,10.90
2017-04-30T23:51:39.437Z,10.80
2017-04-30T23:54:08.392Z,10.80
2017-04-30T23:56:37.283Z,10.70
2017-04-30T23:59:06.197Z,10.70
